Time;durP1;ratioP1;P1;durP2;ratioP2;P2;SDS_P1;SDS_P2;PMS_P1;PMS_P2;Temp;Humidity;BMP_temperature;BMP_pressure;BME280_temperature;BME280_humidity;BME280_pressure;Samples;Min_cycle;Max_cycle;Signal;HPM_P1;HPM_P2
2023/12/20 00:01:09;;;;;;;2.30;1.20;;;;;;;7.82;nan;99763.72;4985364;28;20192;-77
2023/12/20 00:03:35;;;;;;;1.35;0.82;;;;;;;7.82;nan;99771.56;4985762;28;20198;-78
2023/12/20 00:06:00;;;;;;;1.57;1.40;;;;;;;7.88;nan;99766.03;4983540;28;20573;-79
2023/12/20 00:08:25;;;;;;;1.77;1.53;;;;;;;7.89;nan;99759.06;4980633;28;20188;-79
2023/12/20 00:10:51;;;;;;;1.30;1.00;;;;;;;7.91;nan;99746.72;4981638;28;20207;-77
2023/12/20 00:13:16;;;;;;;1.40;1.20;;;;;;;7.90;nan;99751.13;4979695;28;20180;-78
2023/12/20 00:15:42;;;;;;;1.53;1.30;;;;;;;7.87;nan;99745.22;4979033;28;20498;-77
2023/12/20 00:18:10;;;;;;;1.97;1.30;;;;;;;7.88;nan;99739.03;4982352;28;20180;-78
2023/12/20 00:20:36;;;;;;;1.25;1.15;;;;;;;7.87;nan;99734.75;4983527;28;20294;-79
2023/12/20 00:23:02;;;;;;;1.33;1.23;;;;;;;7.90;nan;99739.81;4984259;28;20532;-78
2023/12/20 00:25:28;;;;;;;1.80;1.30;;;;;;;7.88;nan;99742.50;4964992;28;20242;-79
2023/12/20 00:27:54;;;;;;;1.77;1.30;;;;;;;7.87;nan;99745.22;4982814;28;20318;-79
2023/12/20 00:30:19;;;;;;;1.30;1.20;;;;;;;7.85;nan;99752.28;4985444;28;20196;-78
2023/12/20 00:32:46;;;;;;;2.43;1.50;;;;;;;7.82;nan;99770.75;4983734;28;20307;-79
2023/12/20 00:35:15;;;;;;;1.25;1.13;;;;;;;7.82;nan;99770.75;4983152;28;20631;-79
2023/12/20 00:37:42;;;;;;;1.80;1.52;;;;;;;7.79;nan;99757.81;4985121;28;20196;-83
2023/12/20 00:40:08;;;;;;;2.67;1.52;;;;;;;7.78;nan;99750.88;4973923;28;20935;-79
2023/12/20 00:42:34;;;;;;;4.40;1.50;;;;;;;7.74;nan;99740.56;4954542;28;20192;-82
2023/12/20 00:45:00;;;;;;;3.10;1.87;;;;;;;7.66;nan;99737.50;4974867;28;20455;-77
2023/12/20 00:47:25;;;;;;;1.77;1.50;;;;;;;7.60;nan;99742.19;4977783;28;20204;-76
2023/12/20 00:49:51;;;;;;;1.57;1.23;;;;;;;7.53;nan;99752.97;4976765;28;20199;-75
2023/12/20 00:52:17;;;;;;;2.27;1.70;;;;;;;7.47;nan;99749.78;4977733;28;20195;-78
2023/12/20 00:54:43;;;;;;;1.93;1.63;;;;;;;7.43;nan;99746.47;4977412;28;20703;-75
2023/12/20 00:57:09;;;;;;;1.95;1.80;;;;;;;7.36;nan;99741.63;4975778;28;20524;-77
2023/12/20 00:59:34;;;;;;;2.03;1.80;;;;;;;7.31;nan;99737.44;4973399;28;20656;-79
2023/12/20 01:02:00;;;;;;;2.13;1.63;;;;;;;7.27;nan;99741.16;4970053;28;20462;-82
2023/12/20 01:04:25;;;;;;;1.97;1.77;;;;;;;7.24;nan;99750.91;4974226;28;20630;-79
2023/12/20 01:06:50;;;;;;;2.10;1.77;;;;;;;7.25;nan;99755.19;4971029;28;20208;-81
2023/12/20 01:09:16;;;;;;;2.17;1.93;;;;;;;7.19;nan;99742.44;4972716;28;20203;-79
2023/12/20 01:11:41;;;;;;;1.83;1.73;;;;;;;7.17;nan;99745.09;4969815;28;20200;-80
2023/12/20 01:14:06;;;;;;;4.20;2.00;;;;;;;7.16;nan;99742.59;4970513;28;20215;-79
2023/12/20 01:16:32;;;;;;;2.60;1.67;;;;;;;7.15;nan;99746.94;4965828;28;20212;-81
2023/12/20 01:18:57;;;;;;;2.17;1.87;;;;;;;7.14;nan;99749.63;4962551;28;20200;-79
2023/12/20 01:21:23;;;;;;;2.07;1.47;;;;;;;7.14;nan;99740.03;4962672;28;20274;-80
2023/12/20 01:23:49;;;;;;;2.87;1.53;;;;;;;7.16;nan;99740.81;4965440;28;20200;-79
2023/12/20 01:26:15;;;;;;;2.97;1.63;;;;;;;7.17;nan;99746.88;4968750;28;20463;-80
2023/12/20 01:28:40;;;;;;;2.10;1.60;;;;;;;7.15;nan;99743.50;4965541;28;20208;-79
2023/12/20 01:31:06;;;;;;;1.93;1.40;;;;;;;7.16;nan;99739.97;4967848;28;20560;-79
2023/12/20 01:33:31;;;;;;;1.63;1.37;;;;;;;7.16;nan;99740.81;4966921;28;20350;-80
2023/12/20 01:35:56;;;;;;;2.33;1.37;;;;;;;7.16;nan;99746.03;4970506;28;20237;-79
2023/12/20 01:38:22;;;;;;;1.47;1.20;;;;;;;7.16;nan;99746.03;4971346;28;20204;-80
2023/12/20 01:40:47;;;;;;;2.70;1.63;;;;;;;7.14;nan;99742.66;4968838;28;20236;-79
2023/12/20 01:43:13;;;;;;;1.50;1.27;;;;;;;7.17;nan;99752.94;4969256;28;21454;-80
2023/12/20 01:45:41;;;;;;;1.93;1.40;;;;;;;7.16;nan;99751.25;4969971;28;20703;-79
2023/12/20 01:48:08;;;;;;;1.30;1.15;;;;;;;7.17;nan;99745.09;4974956;28;20240;-81
2023/12/20 01:50:36;;;;;;;1.77;1.30;;;;;;;7.16;nan;99751.25;4974769;28;20695;-78
2023/12/20 01:53:03;;;;;;;2.75;1.73;;;;;;;7.18;nan;99752.00;4979071;28;20196;-77
2023/12/20 01:55:32;;;;;;;1.83;1.25;;;;;;;7.19;nan;99748.50;4973898;28;20239;-76
2023/12/20 01:57:58;;;;;;;2.72;1.30;;;;;;;7.19;nan;99753.72;4975541;28;20715;-76
2023/12/20 02:00:26;;;;;;;1.83;1.42;;;;;;;7.19;nan;99747.66;4975959;28;20199;-78
2023/12/20 02:02:54;;;;;;;1.55;1.10;;;;;;;7.18;nan;99748.56;4977070;28;20204;-80
2023/12/20 02:05:29;;;;;;;1.50;0.95;;;;;;;7.17;nan;99749.50;4987336;28;20211;-79
2023/12/20 02:07:56;;;;;;;1.27;1.17;;;;;;;7.15;nan;99744.31;4969790;28;20184;-78
2023/12/20 02:10:23;;;;;;;1.80;1.70;;;;;;;7.15;nan;99756.53;4989010;28;20192;-79
2023/12/20 02:12:51;;;;;;;1.83;1.00;;;;;;;7.17;nan;99754.72;4987644;28;20203;-78
2023/12/20 02:15:17;;;;;;;1.48;1.00;;;;;;;7.15;nan;99749.56;4990105;28;20643;-79
2023/12/20 02:17:44;;;;;;;1.50;1.40;;;;;;;7.15;nan;99744.31;4990763;28;20328;-79
2023/12/20 02:20:10;;;;;;;1.45;1.33;;;;;;;7.13;nan;99743.56;4987140;28;20820;-78
2023/12/20 02:22:36;;;;;;;2.40;1.15;;;;;;;7.15;nan;99746.09;4990050;28;20584;-79
2023/12/20 02:25:01;;;;;;;1.97;1.40;;;;;;;7.14;nan;99745.25;4992132;28;20184;-79
2023/12/20 02:27:27;;;;;;;1.80;1.00;;;;;;;7.12;nan;99741.03;4991312;28;20894;-79
2023/12/20 02:29:53;;;;;;;1.83;1.10;;;;;;;7.14;nan;99732.19;4972529;28;20270;-79
2023/12/20 02:32:19;;;;;;;3.03;1.33;;;;;;;7.12;nan;99733.19;4989570;28;20275;-78
2023/12/20 02:34:44;;;;;;;1.13;1.03;;;;;;;7.13;nan;99737.47;4988252;28;20306;-79
2023/12/20 02:37:10;;;;;;;1.70;1.20;;;;;;;7.13;nan;99733.13;4988032;28;20455;-78
2023/12/20 02:39:36;;;;;;;1.63;1.10;;;;;;;7.12;nan;99731.41;4986803;28;20443;-79
2023/12/20 02:42:01;;;;;;;1.57;1.10;;;;;;;7.12;nan;99736.63;4988862;28;20668;-80
2023/12/20 02:44:27;;;;;;;1.60;1.10;;;;;;;7.12;nan;99736.63;4990997;28;20279;-80
2023/12/20 02:46:52;;;;;;;1.20;1.10;;;;;;;7.12;nan;99731.41;4971198;28;20498;-79
2023/12/20 02:49:21;;;;;;;1.90;0.93;;;;;;;7.12;nan;99728.81;4969228;28;20181;-78
2023/12/20 02:51:48;;;;;;;1.33;1.05;;;;;;;7.12;nan;99736.63;4967869;28;20208;-78
2023/12/20 02:54:13;;;;;;;2.57;1.23;;;;;;;7.12;nan;99726.19;4968271;28;20220;-79
2023/12/20 02:56:38;;;;;;;1.60;1.50;;;;;;;7.11;nan;99742.78;4971397;28;20208;-80
2023/12/20 02:59:08;;;;;;;1.37;1.20;;;;;;;7.09;nan;99742.84;4970565;28;20189;-79
2023/12/20 03:01:34;;;;;;;1.52;1.13;;;;;;;7.10;nan;99743.69;4972010;28;20252;-80
2023/12/20 03:04:00;;;;;;;3.08;1.20;;;;;;;7.12;nan;99754.09;4970349;28;20220;-79
2023/12/20 03:06:25;;;;;;;2.53;1.50;;;;;;;7.08;nan;99746.41;4969041;28;20204;-80
2023/12/20 03:08:54;;;;;;;1.60;1.30;;;;;;;7.09;nan;99752.47;4971189;28;20436;-81
2023/12/20 03:11:19;;;;;;;1.37;1.20;;;;;;;7.10;nan;99754.16;4971468;28;20176;-79
2023/12/20 03:13:45;;;;;;;3.33;1.53;;;;;;;7.11;nan;99745.41;4971371;28;20582;-79
2023/12/20 03:16:11;;;;;;;3.57;1.20;;;;;;;7.09;nan;99749.84;4969516;28;20243;-80
2023/12/20 03:18:40;;;;;;;1.52;1.00;;;;;;;7.09;nan;99752.47;4971076;28;20199;-79
2023/12/20 03:21:05;;;;;;;1.30;1.10;;;;;;;7.08;nan;99750.78;4972065;28;20259;-80
2023/12/20 03:23:32;;;;;;;1.43;1.20;;;;;;;7.07;nan;99756.91;4972188;28;20347;-80
2023/12/20 03:25:58;;;;;;;1.20;0.90;;;;;;;7.05;nan;99757.00;4970471;28;20200;-79
2023/12/20 03:28:23;;;;;;;1.70;1.40;;;;;;;7.07;nan;99762.13;4971277;28;20275;-80
2023/12/20 03:30:52;;;;;;;1.27;1.17;;;;;;;7.08;nan;99766.44;4971386;28;20212;-80
2023/12/20 03:33:17;;;;;;;1.98;1.70;;;;;;;7.09;nan;99770.75;4968173;28;20189;-81
2023/12/20 03:35:43;;;;;;;1.67;1.07;;;;;;;7.08;nan;99772.50;4969309;28;20220;-80
2023/12/20 03:38:09;;;;;;;1.47;1.37;;;;;;;7.08;nan;99771.69;4968853;28;20607;-80
2023/12/20 03:40:34;;;;;;;1.53;1.23;;;;;;;7.08;nan;99779.50;4970584;28;20279;-80
2023/12/20 03:43:00;;;;;;;1.20;0.90;;;;;;;7.02;nan;99772.81;4971310;28;20444;-80
2023/12/20 03:45:29;;;;;;;1.40;1.10;;;;;;;7.07;nan;99769.97;4974653;28;20219;-77
2023/12/20 03:47:56;;;;;;;1.60;1.05;;;;;;;7.08;nan;99774.28;4990243;28;20188;-79
2023/12/20 03:50:25;;;;;;;0.80;0.80;;;;;;;7.08;nan;99771.69;5001766;23;20690;-77
2023/12/20 03:52:50;;;;;;;1.38;1.27;;;;;;;7.08;nan;99775.13;4934940;28;20645;-80
2023/12/20 03:55:16;;;;;;;1.80;1.10;;;;;;;7.08;nan;99776.91;4955843;28;20355;-77
2023/12/20 03:57:41;;;;;;;1.50;1.00;;;;;;;7.06;nan;99776.13;4957155;28;20208;-80
2023/12/20 04:00:11;;;;;;;1.03;0.80;;;;;;;7.06;nan;99781.34;4968368;28;20231;-80
2023/12/20 04:02:42;;;;;;;1.35;0.70;;;;;;;7.06;nan;99779.56;4956233;28;20208;-77
2023/12/20 04:05:08;;;;;;;4.72;0.93;;;;;;;7.06;nan;99776.13;4949150;28;20209;-77
2023/12/20 04:07:35;;;;;;;1.35;1.02;;;;;;;7.06;nan;99773.50;4948538;28;20196;-77
2023/12/20 04:10:00;;;;;;;1.10;0.90;;;;;;;7.06;nan;99773.50;4947783;28;20600;-77
2023/12/20 04:12:28;;;;;;;1.23;1.07;;;;;;;7.07;nan;99767.34;4948703;28;20625;-80
2023/12/20 04:14:53;;;;;;;2.65;1.15;;;;;;;7.08;nan;99764.69;4930904;28;20793;-78
2023/12/20 04:17:18;;;;;;;1.40;1.00;;;;;;;7.10;nan;99767.19;4948492;28;20192;-78
2023/12/20 04:19:44;;;;;;;1.90;0.90;;;;;;;7.11;nan;99765.47;4948724;28;20219;-78
2023/12/20 04:22:09;;;;;;;1.20;1.00;;;;;;;7.09;nan;99782.03;4949999;28;20192;-79
2023/12/20 04:24:35;;;;;;;1.37;0.90;;;;;;;7.12;nan;99793.25;4945861;28;20201;-79
2023/12/20 04:27:01;;;;;;;1.27;0.97;;;;;;;7.11;nan;99791.59;4947344;28;20527;-79
2023/12/20 04:29:26;;;;;;;1.95;1.00;;;;;;;7.11;nan;99791.59;4947582;28;22706;-79
2023/12/20 04:31:52;;;;;;;1.50;0.97;;;;;;;7.11;nan;99802.88;4933308;28;20270;-79
2023/12/20 04:34:18;;;;;;;0.90;0.90;;;;;;;7.12;nan;99804.56;4961888;28;20228;-79
2023/12/20 04:36:44;;;;;;;1.23;0.80;;;;;;;7.13;nan;99798.44;4966701;28;20632;-79
2023/12/20 04:39:11;;;;;;;0.80;0.80;;;;;;;7.13;nan;99805.41;4964530;28;20295;-79
2023/12/20 04:41:37;;;;;;;1.10;1.00;;;;;;;7.15;nan;99804.41;4963152;28;20527;-79
2023/12/20 04:44:02;;;;;;;2.37;1.07;;;;;;;7.15;nan;99807.03;4952296;28;21014;-79
2023/12/20 04:46:28;;;;;;;1.23;0.80;;;;;;;7.16;nan;99811.34;4961383;28;20188;-79
2023/12/20 04:48:53;;;;;;;0.90;0.80;;;;;;;7.16;nan;99811.34;4944295;28;20236;-79
2023/12/20 04:51:19;;;;;;;1.60;1.30;;;;;;;7.17;nan;99812.19;4961636;28;20200;-80
2023/12/20 04:53:44;;;;;;;1.20;0.90;;;;;;;7.17;nan;99802.56;4953662;28;20663;-80
2023/12/20 04:56:09;;;;;;;1.13;0.80;;;;;;;7.18;nan;99804.25;4952025;28;20220;-79
2023/12/20 04:58:35;;;;;;;1.10;1.00;;;;;;;7.18;nan;99812.09;4954945;28;20231;-79
2023/12/20 05:01:01;;;;;;;2.67;1.20;;;;;;;7.20;nan;99822.50;4953104;28;20490;-79
2023/12/20 05:03:27;;;;;;;1.55;0.95;;;;;;;7.19;nan;99816.44;4952312;28;20212;-79
2023/12/20 05:05:52;;;;;;;1.77;1.00;;;;;;;7.20;nan;99802.44;4953893;28;20200;-79
2023/12/20 05:08:17;;;;;;;0.90;0.80;;;;;;;7.20;nan;99807.66;4955987;28;20226;-79
2023/12/20 05:10:43;;;;;;;0.90;0.80;;;;;;;7.21;nan;99809.38;4954795;28;20208;-79
2023/12/20 05:13:08;;;;;;;1.57;1.47;;;;;;;7.23;nan;99823.19;4947596;28;20226;-79
2023/12/20 05:15:33;;;;;;;1.10;0.93;;;;;;;7.24;nan;99826.66;4953339;28;20220;-79
2023/12/20 05:17:59;;;;;;;1.40;1.00;;;;;;;7.25;nan;99825.75;4950696;28;20845;-79
2023/12/20 05:20:24;;;;;;;1.07;0.97;;;;;;;7.25;nan;99823.97;4946716;28;20308;-78
2023/12/20 05:22:50;;;;;;;1.13;0.97;;;;;;;7.24;nan;99830.13;4939336;28;20519;-78
2023/12/20 05:25:15;;;;;;;1.80;0.93;;;;;;;7.26;nan;99830.03;4940712;28;20193;-78
2023/12/20 05:27:41;;;;;;;1.40;1.17;;;;;;;7.26;nan;99832.66;4942310;28;20596;-78
2023/12/20 05:30:07;;;;;;;1.30;1.00;;;;;;;7.23;nan;99838.88;4941879;28;20740;-77
2023/12/20 05:32:32;;;;;;;1.07;0.77;;;;;;;7.23;nan;99828.41;4944384;28;20205;-78
2023/12/20 05:34:57;;;;;;;1.30;1.00;;;;;;;7.22;nan;99834.56;4943743;28;20976;-78
2023/12/20 05:37:23;;;;;;;1.73;0.80;;;;;;;7.23;nan;99833.63;4943271;28;20288;-78
2023/12/20 05:39:48;;;;;;;0.90;0.90;;;;;;;7.24;nan;99835.34;4943281;28;20570;-78
2023/12/20 05:42:13;;;;;;;1.00;0.90;;;;;;;7.25;nan;99846.66;4947605;28;20263;-78
2023/12/20 05:44:39;;;;;;;1.50;1.10;;;;;;;7.24;nan;99850.19;4945644;28;20199;-78
2023/12/20 05:47:04;;;;;;;1.30;1.10;;;;;;;7.25;nan;99846.66;4945713;28;20287;-78
2023/12/20 05:49:30;;;;;;;1.30;1.07;;;;;;;7.25;nan;99852.72;4944531;28;20224;-78
2023/12/20 05:51:55;;;;;;;1.00;1.00;;;;;;;7.26;nan;99849.19;4946713;28;20603;-78
2023/12/20 05:54:21;;;;;;;1.47;1.00;;;;;;;7.26;nan;99856.16;4947344;28;20579;-78
2023/12/20 05:56:47;;;;;;;1.20;1.10;;;;;;;7.26;nan;99853.56;4947514;28;20193;-78
2023/12/20 05:59:12;;;;;;;1.23;1.13;;;;;;;7.26;nan;99854.44;4946030;28;21062;-79
2023/12/20 06:01:37;;;;;;;6.53;2.20;;;;;;;7.26;nan;99864.00;4946510;28;20413;-78
2023/12/20 06:04:03;;;;;;;3.10;1.60;;;;;;;7.27;nan;99863.09;4946374;28;20830;-78
2023/12/20 06:06:30;;;;;;;2.77;1.40;;;;;;;7.26;nan;99864.88;4945617;28;20200;-78
2023/12/20 06:08:55;;;;;;;1.25;1.15;;;;;;;7.28;nan;99867.41;4944244;28;20537;-78
2023/12/20 06:11:21;;;;;;;2.27;1.40;;;;;;;7.28;nan;99865.63;4945736;28;20216;-78
2023/12/20 06:13:46;;;;;;;1.20;1.10;;;;;;;7.28;nan;99873.47;4947030;28;20254;-78
2023/12/20 06:16:12;;;;;;;1.47;1.07;;;;;;;7.27;nan;99874.41;4946149;28;20216;-78
2023/12/20 06:18:37;;;;;;;1.50;1.40;;;;;;;7.29;nan;99872.56;4947586;28;20287;-78
2023/12/20 06:21:03;;;;;;;2.43;2.10;;;;;;;7.28;nan;99876.09;4942701;28;20201;-78
2023/12/20 06:23:28;;;;;;;3.17;1.60;;;;;;;7.29;nan;99882.16;4943109;28;20200;-78
2023/12/20 06:25:54;;;;;;;2.03;1.83;;;;;;;7.29;nan;99885.63;4945096;28;20695;-77
2023/12/20 06:28:19;;;;;;;1.30;1.20;;;;;;;7.30;nan;99878.63;4944265;28;20789;-78
2023/12/20 06:30:47;;;;;;;1.50;1.20;;;;;;;7.29;nan;99883.03;4944885;28;20211;-78
2023/12/20 06:33:13;;;;;;;1.05;0.90;;;;;;;7.29;nan;99879.53;4941981;28;20572;-77
2023/12/20 06:35:38;;;;;;;2.60;1.52;;;;;;;7.29;nan;99887.38;4944482;28;20243;-78
2023/12/20 06:38:04;;;;;;;2.77;1.50;;;;;;;7.29;nan;99895.22;4944306;28;20768;-78
2023/12/20 06:40:29;;;;;;;1.50;1.30;;;;;;;7.28;nan;99891.75;4942526;28;20216;-78
2023/12/20 06:42:55;;;;;;;1.83;1.27;;;;;;;7.29;nan;99896.09;4943953;28;20231;-78
2023/12/20 06:45:20;;;;;;;2.73;1.70;;;;;;;7.29;nan;99892.59;4944058;28;20326;-78
2023/12/20 06:47:45;;;;;;;1.10;0.93;;;;;;;7.29;nan;99896.09;4944813;28;20617;-78
2023/12/20 06:50:11;;;;;;;4.97;1.70;;;;;;;7.30;nan;99896.94;4942209;28;20228;-78
2023/12/20 06:52:37;;;;;;;4.50;1.93;;;;;;;7.30;nan;99910.84;4942311;28;20207;-78
2023/12/20 06:55:03;;;;;;;2.58;1.90;;;;;;;7.27;nan;99903.13;4943787;28;20212;-78
2023/12/20 06:57:29;;;;;;;2.67;1.60;;;;;;;7.27;nan;99910.97;4946001;28;20566;-78
2023/12/20 06:59:54;;;;;;;1.55;1.27;;;;;;;7.28;nan;99910.03;4940458;28;20299;-78
2023/12/20 07:02:20;;;;;;;2.10;1.60;;;;;;;7.29;nan;99914.38;4926539;28;20302;-78
2023/12/20 07:04:46;;;;;;;2.33;2.13;;;;;;;7.30;nan;99915.22;4946212;28;20440;-78
2023/12/20 07:07:11;;;;;;;2.53;1.80;;;;;;;7.29;nan;99911.75;4943730;28;20254;-78
2023/12/20 07:09:38;;;;;;;1.80;1.63;;;;;;;7.28;nan;99920.50;4940192;28;20698;-78
2023/12/20 07:12:04;;;;;;;3.92;2.17;;;;;;;7.27;nan;99918.81;4942898;28;20717;-78
2023/12/20 07:14:29;;;;;;;2.87;2.37;;;;;;;7.26;nan;99924.97;4939088;28;20279;-78
2023/12/20 07:16:54;;;;;;;3.30;2.50;;;;;;;7.28;nan;99936.19;4943719;28;20205;-78
2023/12/20 07:19:20;;;;;;;6.57;2.80;;;;;;;7.28;nan;99936.19;4942730;28;20231;-78
2023/12/20 07:21:45;;;;;;;3.00;2.70;;;;;;;7.28;nan;99938.78;4945088;28;20855;-79
2023/12/20 07:24:11;;;;;;;2.57;2.33;;;;;;;7.27;nan;99952.78;4941402;28;20490;-79
2023/12/20 07:26:37;;;;;;;2.10;1.67;;;;;;;7.25;nan;99956.38;4945984;28;20689;-79
2023/12/20 07:29:04;;;;;;;2.08;1.65;;;;;;;7.23;nan;99952.97;4941329;28;20641;-79
2023/12/20 07:31:29;;;;;;;2.72;2.05;;;;;;;7.22;nan;99946.06;4940650;28;20223;-79
2023/12/20 07:33:54;;;;;;;1.37;1.27;;;;;;;7.22;nan;99951.28;4939681;28;20188;-79
2023/12/20 07:36:21;;;;;;;1.40;1.30;;;;;;;7.20;nan;99963.56;4939811;28;20188;-79
2023/12/20 07:38:47;;;;;;;1.75;1.65;;;;;;;7.17;nan;99974.16;4937130;28;20212;-79
2023/12/20 07:41:12;;;;;;;3.20;1.87;;;;;;;7.15;nan;99973.38;4941242;28;20226;-79
2023/12/20 07:43:38;;;;;;;2.60;1.70;;;;;;;7.15;nan;99976.81;4941135;28;20459;-79
2023/12/20 07:46:05;;;;;;;1.77;1.60;;;;;;;7.15;nan;99982.03;4943847;28;20446;-79
2023/12/20 07:48:30;;;;;;;1.95;1.75;;;;;;;7.14;nan;99982.97;4945550;28;20215;-79
2023/12/20 07:50:56;;;;;;;2.47;1.87;;;;;;;7.14;nan;99982.97;4945824;28;20252;-79
2023/12/20 07:53:21;;;;;;;2.40;1.90;;;;;;;7.14;nan;99985.59;4933913;28;20224;-79
2023/12/20 07:55:47;;;;;;;5.23;2.20;;;;;;;7.15;nan;99989.03;4945496;28;20212;-79
2023/12/20 07:58:12;;;;;;;4.90;2.67;;;;;;;7.14;nan;99982.97;4947380;28;20720;-79
2023/12/20 08:00:38;;;;;;;5.13;2.57;;;;;;;7.17;nan;99987.22;4948726;28;20202;-80
2023/12/20 08:03:03;;;;;;;4.03;3.17;;;;;;;7.18;nan;99992.34;4947480;28;21046;-79
2023/12/20 08:05:29;;;;;;;5.27;3.50;;;;;;;7.19;nan;99978.41;4946357;28;20234;-79
2023/12/20 08:07:54;;;;;;;4.60;4.07;;;;;;;7.21;nan;99979.19;4944033;28;20210;-79
2023/12/20 08:10:19;;;;;;;4.80;3.87;;;;;;;7.20;nan;99987.91;4944736;28;20262;-79
2023/12/20 08:12:45;;;;;;;4.37;3.97;;;;;;;7.22;nan;99995.72;4948894;28;20192;-79
2023/12/20 08:15:10;;;;;;;2.60;2.37;;;;;;;7.23;nan;99987.78;4944528;28;20223;-79
2023/12/20 08:17:36;;;;;;;4.67;3.63;;;;;;;7.25;nan;99999.03;4943956;28;20200;-79
2023/12/20 08:20:01;;;;;;;4.03;3.50;;;;;;;7.28;nan;99996.28;4945086;28;20291;-79
2023/12/20 08:22:26;;;;;;;5.40;3.57;;;;;;;7.31;nan;100001.38;4949512;28;21110;-79
2023/12/20 08:24:52;;;;;;;6.20;4.00;;;;;;;7.35;nan;99999.47;4945707;28;20283;-79
2023/12/20 08:27:17;;;;;;;5.77;4.00;;;;;;;7.39;nan;99995.81;4946127;28;20714;-79
2023/12/20 08:29:44;;;;;;;4.87;4.00;;;;;;;7.39;nan;100003.63;4947119;28;20724;-79
2023/12/20 08:32:10;;;;;;;4.43;3.55;;;;;;;7.42;nan;100007.88;4944671;28;20736;-79
2023/12/20 08:34:35;;;;;;;4.83;3.50;;;;;;;7.41;nan;100008.81;4940235;28;20224;-79
2023/12/20 08:37:01;;;;;;;4.40;4.03;;;;;;;7.42;nan;100013.97;4944140;28;20195;-79
2023/12/20 08:39:26;;;;;;;4.33;3.60;;;;;;;7.43;nan;100013.06;4943264;28;20243;-79
2023/12/20 08:41:52;;;;;;;10.33;9.23;;;;;;;7.42;nan;100021.78;4945550;28;20220;-79
2023/12/20 08:50:38;;;;;;;4.80;4.05;;;;;;;7.42;nan;100027.03;4905847;29;20610;-76
2023/12/20 08:53:04;;;;;;;5.13;4.50;;;;;;;7.43;nan;100030.50;4910898;28;20666;-76
2023/12/20 08:55:30;;;;;;;5.83;5.20;;;;;;;7.44;nan;100040.03;4906146;29;20221;-76
2023/12/20 08:57:56;;;;;;;6.72;6.03;;;;;;;7.46;nan;100043.44;4906425;29;20205;-76
2023/12/20 09:00:24;;;;;;;14.70;9.50;;;;;;;7.49;nan;100044.16;4910996;28;20213;-76
2023/12/20 09:02:49;;;;;;;8.38;5.85;;;;;;;7.49;nan;100044.16;4908664;29;20233;-76
2023/12/20 09:05:15;;;;;;;8.80;6.37;;;;;;;7.50;nan;100050.22;4908168;29;20173;-76
2023/12/20 09:07:40;;;;;;;6.77;5.23;;;;;;;7.53;nan;100047.47;4910364;28;21348;-76
2023/12/20 09:10:06;;;;;;;5.90;4.10;;;;;;;7.54;nan;100051.78;4908882;29;20560;-76
2023/12/20 09:12:31;;;;;;;4.80;4.17;;;;;;;7.54;nan;100059.63;4905875;28;20217;-74
2023/12/20 09:14:57;;;;;;;4.93;4.20;;;;;;;7.54;nan;100062.25;4911766;29;20248;-76
2023/12/20 09:17:22;;;;;;;6.13;4.57;;;;;;;7.56;nan;100062.16;4909570;29;20643;-75
2023/12/20 09:19:48;;;;;;;6.33;4.03;;;;;;;7.56;nan;100070.00;4907675;28;20661;-75
2023/12/20 09:22:14;;;;;;;4.37;3.63;;;;;;;7.54;nan;100067.47;4909666;28;20513;-75
2023/12/20 09:24:39;;;;;;;2.10;1.90;;;;;;;7.53;nan;100077.09;4907315;29;20304;-75
2023/12/20 09:27:05;;;;;;;4.07;2.83;;;;;;;7.53;nan;100087.53;4909913;29;20208;-75
2023/12/20 09:29:31;;;;;;;3.03;2.60;;;;;;;7.53;nan;100081.44;4905054;28;20206;-75
2023/12/20 09:31:57;;;;;;;3.43;2.80;;;;;;;7.53;nan;100081.44;4907464;29;20465;-76
2023/12/20 09:34:23;;;;;;;5.63;2.83;;;;;;;7.55;nan;100082.22;4909060;29;20634;-75
2023/12/20 09:36:48;;;;;;;3.90;3.10;;;;;;;7.57;nan;100083.03;4908850;29;20202;-76
2023/12/20 09:39:14;;;;;;;4.57;3.43;;;;;;;7.64;nan;100080.97;4908050;29;20832;-76
2023/12/20 09:41:44;;;;;;;6.13;3.10;;;;;;;7.72;nan;100069.28;4906747;29;20592;-75
2023/12/20 09:44:14;;;;;;;2.88;1.90;;;;;;;7.81;nan;100077.63;4907084;28;20920;-76
2023/12/20 09:46:43;;;;;;;3.00;2.30;;;;;;;7.87;nan;100090.44;4905958;29;20209;-76
2023/12/20 09:49:13;;;;;;;2.72;2.17;;;;;;;8.26;nan;100092.13;4964625;23;20235;-80
2023/12/20 09:51:41;;;;;;;2.75;2.55;;;;;;;9.33;nan;100081.72;4993705;28;20893;-80
2023/12/20 09:54:06;;;;;;;6.38;2.03;;;;;;;10.50;nan;100080.78;4993304;28;20237;-82
2023/12/20 09:56:35;;;;;;;5.25;2.05;;;;;;;10.86;nan;100070.00;4987121;28;20269;-79
2023/12/20 09:59:00;;;;;;;2.77;1.40;;;;;;;10.73;nan;100066.38;4985424;28;20295;-84
2023/12/20 10:01:28;;;;;;;1.47;1.37;;;;;;;10.37;nan;100057.84;4988155;28;20627;-82
2023/12/20 10:03:54;;;;;;;4.03;1.83;;;;;;;10.33;nan;100055.47;4989017;28;20428;-81
2023/12/20 10:06:25;;;;;;;1.63;1.40;;;;;;;11.01;nan;100060.38;4974206;28;20191;-83
2023/12/20 10:08:50;;;;;;;1.83;1.55;;;;;;;11.67;nan;100054.66;4990984;28;21063;-83
2023/12/20 10:11:19;;;;;;;1.30;1.20;;;;;;;11.61;nan;100052.41;4973791;28;20199;-82
2023/12/20 10:13:48;;;;;;;1.80;1.70;;;;;;;11.59;nan;100049.03;4992993;28;20386;-84
2023/12/20 10:16:13;;;;;;;4.05;1.98;;;;;;;11.69;nan;100051.94;4971686;28;20297;-79
2023/12/20 10:18:39;;;;;;;3.70;1.40;;;;;;;11.70;nan;100051.00;4986543;28;20298;-81
2023/12/20 10:21:06;;;;;;;2.20;1.63;;;;;;;11.58;nan;100049.94;4991164;28;20207;-84
2023/12/20 10:23:41;;;;;;;1.45;1.35;;;;;;;11.29;nan;100055.19;4991145;28;20203;-79
2023/12/20 10:26:06;;;;;;;4.35;1.60;;;;;;;10.91;nan;100056.56;4991633;28;20191;-81
2023/12/20 10:28:37;;;;;;;2.00;1.10;;;;;;;10.52;nan;100043.00;4987840;28;20773;-84
2023/12/20 10:31:02;;;;;;;4.72;1.33;;;;;;;10.23;nan;100041.13;4989708;28;20210;-83
2023/12/20 10:33:32;;;;;;;1.30;1.20;;;;;;;9.93;nan;100042.72;4991217;28;20199;-79
2023/12/20 10:35:57;;;;;;;5.25;1.77;;;;;;;9.67;nan;100038.03;4993939;28;20209;-82
2023/12/20 10:38:23;;;;;;;4.85;1.92;;;;;;;9.46;nan;100035.59;4991380;28;20203;-82
2023/12/20 10:40:55;;;;;;;3.80;1.67;;;;;;;9.35;nan;100034.47;4991415;28;20244;-81
2023/12/20 10:43:22;;;;;;;1.13;1.02;;;;;;;9.26;nan;100028.78;4992918;28;20683;-76
2023/12/20 10:45:52;;;;;;;1.00;0.90;;;;;;;9.18;nan;100038.81;4991942;28;20190;-77
2023/12/20 10:48:38;;;;;;;4.18;1.70;;;;;;;9.07;nan;100044.59;4995150;28;20213;-80
2023/12/20 10:51:13;;;;;;;1.25;1.15;;;;;;;8.96;nan;100036.41;4986468;28;21200;-77
2023/12/20 10:53:40;;;;;;;2.00;1.40;;;;;;;8.96;nan;100046.03;4990644;28;20218;-85
2023/12/20 10:56:08;;;;;;;3.72;1.95;;;;;;;9.00;nan;100050.22;4974360;28;20473;-82
2023/12/20 10:58:42;;;;;;;1.60;1.50;;;;;;;9.06;nan;100034.19;4993181;28;20276;-83
2023/12/20 11:01:09;;;;;;;1.80;1.15;;;;;;;9.08;nan;100033.19;4985916;28;20461;-81
2023/12/20 11:03:38;;;;;;;1.67;1.25;;;;;;;9.11;nan;100031.34;4988967;28;20835;-83
2023/12/20 11:06:10;;;;;;;1.70;1.10;;;;;;;9.06;nan;100028.94;4987145;28;20397;-81
2023/12/20 11:08:38;;;;;;;1.08;1.00;;;;;;;9.01;nan;100026.53;4989844;28;20199;-80
2023/12/20 11:11:11;;;;;;;2.05;1.08;;;;;;;9.00;nan;100037.13;4992456;28;20199;-80
2023/12/20 11:13:44;;;;;;;1.30;0.93;;;;;;;9.00;nan;100027.47;4993686;28;20238;-77
2023/12/20 11:16:10;;;;;;;1.40;1.30;;;;;;;8.97;nan;100018.94;4990901;28;20884;-76
2023/12/20 11:18:36;;;;;;;1.30;1.13;;;;;;;8.99;nan;100017.94;4986669;28;20894;-77
2023/12/20 11:21:05;;;;;;;1.20;1.00;;;;;;;9.02;nan;100015.16;4977389;28;20221;-79
2023/12/20 11:23:34;;;;;;;1.55;1.45;;;;;;;9.08;nan;100021.84;5000250;28;20747;-78
2023/12/20 11:25:59;;;;;;;3.80;1.20;;;;;;;9.13;nan;100019.84;4995383;28;20202;-81
2023/12/20 11:28:26;;;;;;;1.77;1.50;;;;;;;9.18;nan;100024.84;4996736;28;20203;-79
2023/12/20 11:30:55;;;;;;;2.38;1.45;;;;;;;9.24;nan;100024.53;4977497;28;20219;-76
2023/12/20 11:33:25;;;;;;;4.65;1.10;;;;;;;9.33;nan;100024.06;4995173;28;20288;-79
2023/12/20 11:35:52;;;;;;;1.70;1.27;;;;;;;9.36;nan;100029.13;4997074;28;20411;-76
2023/12/20 11:38:20;;;;;;;2.22;1.60;;;;;;;9.34;nan;100017.88;4991294;28;20654;-78
2023/12/20 11:40:52;;;;;;;1.67;1.35;;;;;;;9.31;nan;100012.78;4998037;28;20206;-79
2023/12/20 11:44:01;;;;;;;;;;;;;;;;;;;;;
2023/12/20 11:46:44;;;;;;;3.35;1.30;;;;;;;9.30;nan;100005.88;4994731;28;20199;-76
2023/12/20 11:49:09;;;;;;;1.40;1.20;;;;;;;9.29;nan;100005.03;4994389;28;20253;-78
2023/12/20 11:51:35;;;;;;;1.70;1.30;;;;;;;9.28;nan;100005.94;4997903;28;20203;-80
2023/12/20 11:54:00;;;;;;;1.60;1.50;;;;;;;9.31;nan;100002.31;4990060;28;20211;-80
2023/12/20 11:56:25;;;;;;;1.87;1.10;;;;;;;9.32;nan;99998.78;4997445;28;20222;-80
2023/12/20 11:58:51;;;;;;;3.10;1.40;;;;;;;9.28;nan;100000.69;4997831;28;20203;-80